Time;durP1;ratioP1;P1;durP2;ratioP2;P2;SDS_P1;SDS_P2;PMS_P1;PMS_P2;Temp;Humidity;BMP_temperature;BMP_pressure;BME280_temperature;BME280_humidity;BME280_pressure;Samples;Min_cycle;Max_cycle;Signal;HPM_P1;HPM_P2
2021/09/16 00:01:19;;;;;;;1.90;1.80;;;17.00;99.90;;;;;;5070172;28;20454;-73
2021/09/16 00:03:49;;;;;;;3.53;2.27;;;17.00;99.90;;;;;;5108167;23;20483;-90
2021/09/16 00:06:16;;;;;;;2.33;1.70;;;17.00;99.90;;;;;;5055335;28;21028;-91
2021/09/16 00:08:43;;;;;;;2.13;1.93;;;17.00;99.90;;;;;;5055293;28;20956;-91
2021/09/16 00:11:12;;;;;;;2.30;2.13;;;17.10;99.90;;;;;;5055427;28;20489;-91
2021/09/16 00:13:38;;;;;;;1.90;1.80;;;17.00;99.90;;;;;;5058215;28;20483;-92
2021/09/16 00:16:06;;;;;;;2.67;2.00;;;17.00;99.90;;;;;;5067035;28;20467;-92
2021/09/16 00:18:34;;;;;;;2.13;1.93;;;17.10;99.90;;;;;;5056881;28;20459;-92
2021/09/16 00:31:14;;;;;;;2.20;2.00;;;17.00;99.90;;;;;;5066873;28;20966;-68
2021/09/16 00:33:41;;;;;;;2.00;1.80;;;17.00;99.90;;;;;;5070276;28;20454;-68
2021/09/16 00:36:08;;;;;;;3.20;2.37;;;17.00;99.90;;;;;;5070065;28;20827;-69
2021/09/16 00:38:34;;;;;;;4.27;2.37;;;17.00;99.90;;;;;;5070143;28;20474;-68
2021/09/16 00:41:02;;;;;;;2.47;2.10;;;17.00;99.90;;;;;;5069766;28;20454;-68
2021/09/16 00:43:29;;;;;;;1.87;1.73;;;17.00;99.90;;;;;;5070110;28;20458;-68
2021/09/16 00:46:02;;;;;;;2.20;2.00;;;17.00;99.90;;;;;;5070216;28;20461;-68
2021/09/16 00:48:30;;;;;;;1.93;1.73;;;17.00;99.90;;;;;;5069926;28;20486;-68
2021/09/16 00:50:57;;;;;;;2.00;1.80;;;17.00;99.90;;;;;;5069774;28;20670;-68
2021/09/16 00:53:27;;;;;;;2.03;1.83;;;17.00;99.90;;;;;;5069673;28;20463;-68
2021/09/16 00:55:55;;;;;;;2.50;2.30;;;17.00;99.90;;;;;;5070263;28;20465;-68
2021/09/16 00:58:24;;;;;;;2.20;1.87;;;17.00;99.90;;;;;;5069583;28;20482;-68
2021/09/16 01:00:51;;;;;;;2.10;2.00;;;17.00;99.90;;;;;;5069707;28;20861;-68
2021/09/16 01:03:17;;;;;;;2.23;2.00;;;17.00;99.90;;;;;;5069147;28;20465;-68
2021/09/16 01:05:45;;;;;;;2.00;1.80;;;17.00;99.90;;;;;;5070235;28;20459;-68
2021/09/16 01:08:12;;;;;;;2.27;2.07;;;17.00;99.90;;;;;;5069952;28;20479;-68
2021/09/16 01:10:39;;;;;;;6.53;2.10;;;17.00;99.90;;;;;;5069340;28;20877;-68
2021/09/16 01:13:06;;;;;;;2.07;1.60;;;17.00;99.90;;;;;;5069920;28;20836;-68
2021/09/16 01:15:32;;;;;;;3.60;1.70;;;17.00;99.90;;;;;;5069650;28;20465;-68
2021/09/16 01:17:59;;;;;;;2.50;2.00;;;17.00;99.90;;;;;;5072213;28;20481;-68
2021/09/16 01:20:26;;;;;;;2.03;1.33;;;17.00;99.90;;;;;;5073023;28;20840;-69
2021/09/16 01:22:55;;;;;;;2.73;1.97;;;17.00;99.90;;;;;;5073871;28;20466;-68
2021/09/16 01:25:26;;;;;;;5.23;1.67;;;17.00;99.90;;;;;;5073631;28;20485;-68
2021/09/16 01:27:54;;;;;;;2.10;1.90;;;17.00;99.90;;;;;;5073390;28;20482;-68
2021/09/16 01:30:21;;;;;;;1.60;1.50;;;17.00;99.90;;;;;;5072909;28;20492;-68
2021/09/16 01:32:48;;;;;;;2.40;2.20;;;17.00;99.90;;;;;;5073381;28;20489;-68
2021/09/16 01:35:15;;;;;;;5.83;1.77;;;17.00;99.90;;;;;;5073364;28;20503;-68
2021/09/16 01:37:42;;;;;;;2.47;2.00;;;17.00;99.90;;;;;;5073278;28;20501;-68
2021/09/16 01:40:11;;;;;;;3.33;1.70;;;17.00;99.90;;;;;;5072839;28;20466;-69
2021/09/16 01:42:42;;;;;;;2.10;1.90;;;17.00;99.90;;;;;;5073439;28;20458;-68
2021/09/16 01:45:13;;;;;;;2.20;1.90;;;17.00;99.90;;;;;;5073099;28;20494;-68
2021/09/16 01:47:40;;;;;;;2.70;1.97;;;17.00;99.90;;;;;;5073265;28;21001;-68
2021/09/16 01:50:07;;;;;;;3.13;1.90;;;17.00;99.90;;;;;;5072607;28;20458;-68
2021/09/16 01:52:34;;;;;;;2.90;2.00;;;17.00;99.90;;;;;;5073079;28;20564;-68
2021/09/16 01:55:01;;;;;;;3.90;3.00;;;17.00;99.90;;;;;;5073102;28;20466;-68
2021/09/16 01:57:29;;;;;;;3.03;2.10;;;17.00;99.90;;;;;;5072842;28;20505;-68
2021/09/16 01:59:55;;;;;;;4.67;1.83;;;17.00;99.90;;;;;;5072759;28;20463;-68
2021/09/16 02:02:22;;;;;;;2.20;2.00;;;17.00;99.90;;;;;;5072570;28;20513;-68
2021/09/16 02:04:49;;;;;;;1.93;1.70;;;17.00;99.90;;;;;;5073153;28;20469;-68
2021/09/16 02:07:16;;;;;;;1.60;1.50;;;16.90;99.90;;;;;;5072407;28;20461;-68
2021/09/16 02:09:42;;;;;;;2.80;1.93;;;17.00;99.90;;;;;;5072705;28;20469;-68
2021/09/16 02:12:10;;;;;;;2.00;1.80;;;17.00;99.90;;;;;;5072207;28;21042;-68
2021/09/16 02:14:38;;;;;;;1.80;1.60;;;17.00;99.90;;;;;;5072638;28;20458;-68
2021/09/16 02:17:05;;;;;;;1.67;1.57;;;17.00;99.90;;;;;;5072679;28;20461;-68
2021/09/16 02:19:32;;;;;;;2.17;1.97;;;17.00;99.90;;;;;;5072624;28;20462;-68
2021/09/16 02:21:59;;;;;;;1.77;1.67;;;17.00;99.90;;;;;;5072161;28;20466;-68
2021/09/16 02:24:25;;;;;;;1.70;1.60;;;17.00;99.90;;;;;;5072164;28;20458;-68
2021/09/16 02:26:52;;;;;;;1.80;1.70;;;17.00;99.90;;;;;;5072792;28;20466;-68
2021/09/16 02:29:19;;;;;;;2.70;2.20;;;17.00;99.90;;;;;;5071751;28;21027;-68
2021/09/16 02:31:47;;;;;;;2.13;1.50;;;17.00;99.90;;;;;;5071938;28;20489;-68
2021/09/16 02:34:14;;;;;;;2.20;1.70;;;17.00;99.90;;;;;;5072341;28;20462;-69
2021/09/16 02:36:40;;;;;;;1.80;1.70;;;17.00;99.90;;;;;;5072293;28;20470;-68
2021/09/16 02:39:07;;;;;;;4.33;1.80;;;17.00;99.90;;;;;;5071983;28;20896;-69
2021/09/16 02:41:34;;;;;;;2.37;2.10;;;17.00;99.90;;;;;;5071682;28;20462;-68
2021/09/16 02:44:01;;;;;;;2.30;1.70;;;17.00;99.90;;;;;;5072333;28;20986;-69
2021/09/16 02:46:28;;;;;;;4.27;1.57;;;16.90;99.90;;;;;;5072148;28;20459;-68
2021/09/16 02:48:56;;;;;;;2.53;1.73;;;16.90;99.90;;;;;;5072129;28;20487;-68
2021/09/16 02:51:22;;;;;;;5.90;2.07;;;16.90;99.90;;;;;;5071334;28;20482;-68
2021/09/16 02:53:49;;;;;;;2.27;2.07;;;16.90;99.90;;;;;;5071741;28;20462;-68
2021/09/16 02:56:16;;;;;;;2.10;1.50;;;16.90;99.90;;;;;;5071917;28;20470;-68
2021/09/16 02:58:42;;;;;;;3.77;1.67;;;16.90;99.90;;;;;;5071797;28;20490;-68
2021/09/16 03:01:09;;;;;;;1.67;1.57;;;16.90;99.90;;;;;;5071258;28;20946;-68
2021/09/16 03:03:36;;;;;;;2.13;1.93;;;16.80;99.90;;;;;;5071956;28;20463;-68
2021/09/16 03:06:04;;;;;;;6.60;2.30;;;16.80;99.90;;;;;;5071482;28;21143;-68
2021/09/16 03:08:31;;;;;;;2.20;1.73;;;16.80;99.90;;;;;;5071522;28;20493;-68
2021/09/16 03:10:57;;;;;;;1.93;1.67;;;16.80;99.90;;;;;;5071011;28;20837;-68
2021/09/16 03:13:24;;;;;;;1.97;1.77;;;16.90;99.90;;;;;;5071318;28;20490;-68
2021/09/16 03:15:51;;;;;;;2.23;2.07;;;16.90;99.90;;;;;;5071395;28;20955;-68
2021/09/16 03:18:17;;;;;;;2.30;1.83;;;16.90;99.90;;;;;;5071415;28;20482;-68
2021/09/16 03:20:44;;;;;;;2.03;1.83;;;16.90;99.90;;;;;;5071048;28;20459;-68
2021/09/16 03:23:12;;;;;;;1.50;1.40;;;16.90;99.90;;;;;;5071135;28;20462;-68
2021/09/16 03:25:39;;;;;;;2.60;2.00;;;16.90;99.90;;;;;;5071272;28;20459;-68
2021/09/16 03:28:06;;;;;;;2.00;1.80;;;16.90;99.90;;;;;;5071113;28;20870;-68
2021/09/16 03:30:32;;;;;;;2.37;1.70;;;16.90;99.90;;;;;;5070922;28;20473;-68
2021/09/16 03:32:59;;;;;;;2.33;1.90;;;16.90;99.90;;;;;;5070179;28;20478;-68
2021/09/16 03:35:26;;;;;;;3.17;2.27;;;16.90;99.90;;;;;;5070141;28;20539;-68
2021/09/16 03:37:52;;;;;;;3.53;1.70;;;16.90;99.90;;;;;;5069690;28;20858;-68
2021/09/16 03:40:21;;;;;;;4.00;2.07;;;16.90;99.90;;;;;;5067978;28;20459;-69
2021/09/16 03:42:50;;;;;;;1.87;1.77;;;16.90;99.90;;;;;;5069653;28;20679;-69
2021/09/16 03:45:17;;;;;;;2.50;1.57;;;16.90;99.90;;;;;;5068989;28;20463;-69
2021/09/16 03:47:43;;;;;;;1.93;1.73;;;16.90;99.90;;;;;;5066915;28;20478;-68
2021/09/16 03:50:11;;;;;;;1.90;1.63;;;16.90;99.90;;;;;;5070150;28;20454;-68
2021/09/16 03:52:38;;;;;;;2.13;1.93;;;16.90;99.90;;;;;;5068850;28;20489;-68
2021/09/16 03:55:05;;;;;;;2.27;1.93;;;16.90;99.90;;;;;;5068901;28;20470;-67
2021/09/16 03:57:33;;;;;;;2.07;1.87;;;16.90;99.90;;;;;;5067914;28;20842;-67
2021/09/16 04:00:00;;;;;;;4.30;2.10;;;16.90;99.90;;;;;;5070085;28;20470;-67
2021/09/16 04:02:27;;;;;;;2.80;2.00;;;16.90;99.90;;;;;;5067838;28;20459;-67
2021/09/16 04:04:53;;;;;;;3.07;1.70;;;16.90;99.90;;;;;;5069180;28;20454;-67
2021/09/16 04:07:20;;;;;;;4.23;1.97;;;16.90;99.90;;;;;;5068235;28;20482;-67
2021/09/16 04:09:47;;;;;;;2.77;2.40;;;16.90;99.90;;;;;;5069018;28;20725;-67
2021/09/16 04:12:13;;;;;;;3.73;2.30;;;16.90;99.90;;;;;;5068172;28;20475;-67
2021/09/16 04:14:42;;;;;;;3.30;2.20;;;16.90;99.90;;;;;;5069021;28;20455;-67
2021/09/16 04:17:08;;;;;;;3.33;2.23;;;16.90;99.90;;;;;;5069045;28;20466;-67
2021/09/16 04:19:35;;;;;;;4.10;2.40;;;16.90;99.90;;;;;;5068879;28;20461;-67
2021/09/16 04:22:02;;;;;;;3.90;2.43;;;16.90;99.90;;;;;;5070170;28;20455;-67
2021/09/16 04:24:29;;;;;;;2.23;1.90;;;16.90;99.90;;;;;;5069968;28;20455;-67
2021/09/16 04:26:55;;;;;;;2.10;1.90;;;16.90;99.90;;;;;;5070514;28;20553;-67
2021/09/16 04:29:22;;;;;;;3.57;2.10;;;16.90;99.90;;;;;;5069004;28;20486;-69
2021/09/16 04:31:50;;;;;;;2.20;2.00;;;16.90;99.90;;;;;;5069259;28;20459;-67
2021/09/16 04:34:17;;;;;;;1.83;1.73;;;16.90;99.90;;;;;;5067594;28;20458;-68
2021/09/16 04:36:44;;;;;;;2.10;1.90;;;16.80;99.90;;;;;;5068503;28;20462;-67
2021/09/16 04:39:10;;;;;;;2.73;2.47;;;16.80;99.90;;;;;;5069970;28;20861;-67
2021/09/16 04:41:37;;;;;;;3.10;2.53;;;16.80;99.90;;;;;;5069718;28;20466;-67
2021/09/16 04:44:04;;;;;;;2.23;2.03;;;16.90;99.90;;;;;;5070555;28;20481;-67
2021/09/16 04:46:31;;;;;;;3.00;1.90;;;16.80;99.90;;;;;;5070177;28;20470;-69
2021/09/16 04:48:59;;;;;;;2.90;2.03;;;16.80;99.90;;;;;;5069990;28;20846;-69
2021/09/16 04:51:26;;;;;;;2.67;1.90;;;16.90;99.90;;;;;;5070663;28;20463;-69
2021/09/16 04:53:52;;;;;;;5.83;2.30;;;16.90;99.90;;;;;;5074217;28;20478;-68
2021/09/16 04:56:19;;;;;;;2.30;2.00;;;16.90;99.90;;;;;;5073969;28;20864;-69
2021/09/16 04:58:46;;;;;;;3.93;2.20;;;16.90;99.90;;;;;;5074312;28;20486;-69
2021/09/16 05:01:12;;;;;;;3.03;2.40;;;16.90;99.90;;;;;;5073707;28;20458;-68
2021/09/16 05:03:39;;;;;;;3.03;2.53;;;16.90;99.90;;;;;;5074011;28;20458;-69
2021/09/16 05:06:07;;;;;;;2.27;2.07;;;16.90;99.90;;;;;;5074120;28;20949;-69
2021/09/16 05:08:34;;;;;;;2.70;2.50;;;16.90;99.90;;;;;;5073872;28;20691;-69
2021/09/16 05:11:01;;;;;;;2.43;2.20;;;16.90;99.90;;;;;;5073607;28;20454;-68
2021/09/16 05:13:27;;;;;;;2.73;2.20;;;16.90;99.90;;;;;;5072891;28;20489;-68
2021/09/16 05:15:54;;;;;;;3.43;2.27;;;16.90;99.90;;;;;;5073949;28;20981;-69
2021/09/16 05:18:21;;;;;;;5.00;2.17;;;16.90;99.90;;;;;;5073847;28;20485;-69
2021/09/16 05:20:47;;;;;;;2.77;2.10;;;16.90;99.90;;;;;;5073569;28;20469;-69
2021/09/16 05:23:15;;;;;;;4.23;2.20;;;16.90;99.90;;;;;;5073677;28;20806;-69
2021/09/16 05:25:42;;;;;;;3.37;2.30;;;16.90;99.90;;;;;;5073583;28;20478;-68
2021/09/16 05:28:09;;;;;;;4.07;3.00;;;16.90;99.90;;;;;;5073899;28;20486;-69
2021/09/16 05:30:36;;;;;;;2.87;2.30;;;16.90;99.90;;;;;;5072937;28;20476;-69
2021/09/16 05:33:07;;;;;;;2.90;2.60;;;16.90;99.90;;;;;;5073758;28;20481;-69
2021/09/16 05:35:34;;;;;;;5.37;2.60;;;16.90;99.90;;;;;;5073388;28;20468;-69
2021/09/16 05:38:00;;;;;;;5.37;3.20;;;16.90;99.90;;;;;;5073735;28;20850;-69
2021/09/16 05:40:28;;;;;;;2.60;2.40;;;16.90;99.90;;;;;;5072733;28;20462;-69
2021/09/16 05:42:55;;;;;;;2.90;2.33;;;16.90;99.90;;;;;;5073602;28;20454;-69
2021/09/16 05:45:22;;;;;;;4.67;2.87;;;16.90;99.90;;;;;;5073270;28;20458;-69
2021/09/16 05:47:48;;;;;;;2.80;2.60;;;16.90;99.90;;;;;;5073264;28;20482;-69
2021/09/16 05:50:15;;;;;;;3.90;2.77;;;16.90;99.90;;;;;;5072495;28;20462;-69
2021/09/16 05:52:42;;;;;;;3.00;2.40;;;16.90;99.90;;;;;;5073275;28;20486;-69
2021/09/16 05:55:10;;;;;;;5.20;2.80;;;16.90;99.90;;;;;;5073304;28;21012;-69
2021/09/16 05:57:38;;;;;;;3.83;2.70;;;16.90;99.90;;;;;;5072984;28;20485;-69
2021/09/16 06:00:06;;;;;;;6.20;2.37;;;16.90;99.90;;;;;;5071859;28;20469;-69
2021/09/16 06:02:33;;;;;;;3.67;2.57;;;16.90;99.90;;;;;;5072285;28;20473;-69
2021/09/16 06:05:00;;;;;;;3.17;2.47;;;16.90;99.90;;;;;;5094746;23;20498;-92
2021/09/16 06:07:26;;;;;;;3.27;2.30;;;16.90;99.90;;;;;;5079129;28;20461;-92
2021/09/16 06:09:53;;;;;;;4.17;3.20;;;16.90;99.90;;;;;;5081049;28;20454;-94
2021/09/16 06:12:20;;;;;;;4.20;3.17;;;17.00;99.90;;;;;;5079364;28;20454;-92
2021/09/16 06:14:49;;;;;;;2.90;2.70;;;17.00;99.90;;;;;;5081753;28;20507;-92
2021/09/16 06:17:16;;;;;;;5.13;2.33;;;17.00;99.90;;;;;;5081808;28;20541;-92
2021/09/16 06:19:42;;;;;;;3.40;2.30;;;17.00;99.90;;;;;;5080915;28;20463;-93
2021/09/16 06:22:09;;;;;;;3.20;2.90;;;17.00;99.90;;;;;;5076707;28;20461;-92
2021/09/16 06:24:36;;;;;;;3.20;2.53;;;17.00;99.90;;;;;;5093010;28;20459;-96
2021/09/16 06:27:06;;;;;;;4.53;2.53;;;17.00;99.90;;;;;;5097395;28;20493;-96
2021/09/16 06:29:33;;;;;;;5.67;3.27;;;17.10;99.90;;;;;;5097022;28;20493;-95
2021/09/16 06:32:01;;;;;;;3.63;2.77;;;17.10;99.90;;;;;;5097112;28;20506;-94
2021/09/16 06:34:28;;;;;;;4.80;2.83;;;17.10;99.90;;;;;;5096721;28;20501;-95
2021/09/16 06:36:54;;;;;;;3.03;2.60;;;17.10;99.90;;;;;;5096874;28;20514;-95
2021/09/16 06:39:21;;;;;;;3.83;3.53;;;17.10;99.90;;;;;;5096740;28;20435;-95
2021/09/16 06:41:48;;;;;;;3.83;3.47;;;17.20;99.90;;;;;;5096737;28;20456;-95
2021/09/16 06:44:15;;;;;;;4.67;2.93;;;17.20;99.90;;;;;;5096639;28;20435;-95
2021/09/16 06:46:42;;;;;;;2.60;2.00;;;17.20;99.90;;;;;;5096604;28;20573;-95
2021/09/16 06:49:10;;;;;;;7.23;2.90;;;17.20;99.90;;;;;;5084619;28;20458;-94
2021/09/16 06:51:37;;;;;;;6.40;2.87;;;17.20;99.90;;;;;;5073903;28;20823;-94
2021/09/16 06:54:05;;;;;;;2.90;2.60;;;17.20;99.90;;;;;;5071677;28;20487;-92
2021/09/16 06:56:32;;;;;;;3.10;2.50;;;17.20;99.90;;;;;;5071988;28;20486;-94
2021/09/16 06:59:01;;;;;;;2.53;2.33;;;17.30;99.90;;;;;;5072966;28;20469;-93
2021/09/16 07:04:20;;;;;;;2.40;1.83;;;17.30;99.90;;;;;;5072114;28;20451;-93
2021/09/16 07:06:55;;;;;;;4.80;2.50;;;17.30;99.90;;;;;;5072673;28;20860;-93
2021/09/16 07:09:26;;;;;;;3.27;2.40;;;17.30;99.90;;;;;;5072819;28;20489;-94
2021/09/16 07:11:53;;;;;;;2.70;1.97;;;17.40;99.90;;;;;;5072999;28;20471;-93
2021/09/16 07:14:21;;;;;;;3.97;2.37;;;17.40;99.90;;;;;;5072766;28;20477;-94
2021/09/16 07:16:49;;;;;;;2.77;2.57;;;17.40;99.90;;;;;;5072790;28;20466;-94
2021/09/16 07:23:18;;;;;;;2.53;2.27;;;17.50;99.90;;;;;;5051624;28;20485;-94
2021/09/16 07:25:47;;;;;;;2.67;2.37;;;17.50;99.90;;;;;;5029682;28;21048;-94
2021/09/16 07:28:14;;;;;;;2.30;2.10;;;17.50;99.90;;;;;;5074770;23;21148;-75
2021/09/16 07:30:41;;;;;;;7.10;3.17;;;17.50;99.90;;;;;;5065347;28;20466;-75
2021/09/16 07:33:10;;;;;;;2.87;2.30;;;17.50;99.90;;;;;;5067240;28;20482;-75
2021/09/16 07:35:37;;;;;;;5.27;2.90;;;17.60;99.90;;;;;;5067129;28;20590;-75
2021/09/16 07:38:05;;;;;;;3.93;2.57;;;17.60;99.90;;;;;;5066820;28;20497;-75
2021/09/16 07:40:33;;;;;;;6.37;2.87;;;17.60;99.90;;;;;;5065901;28;20466;-75
2021/09/16 07:43:00;;;;;;;4.13;2.73;;;17.60;99.90;;;;;;5067028;28;20463;-75
2021/09/16 07:45:27;;;;;;;4.97;2.57;;;17.60;99.90;;;;;;5066133;28;20494;-75
2021/09/16 07:47:54;;;;;;;4.20;2.87;;;17.60;99.90;;;;;;5066411;28;20544;-75
2021/09/16 07:50:21;;;;;;;6.00;3.20;;;17.60;99.90;;;;;;5065452;28;20458;-75
2021/09/16 07:52:48;;;;;;;3.20;2.80;;;17.50;99.90;;;;;;5066124;28;20459;-75
2021/09/16 07:55:15;;;;;;;4.20;2.37;;;17.50;99.90;;;;;;5065999;28;20905;-75
2021/09/16 07:57:43;;;;;;;3.63;2.60;;;17.50;99.90;;;;;;5065908;28;20479;-75
2021/09/16 08:00:11;;;;;;;3.23;2.50;;;17.50;99.90;;;;;;5066165;28;20462;-75
2021/09/16 08:02:44;;;;;;;3.13;2.43;;;17.50;99.90;;;;;;5065304;28;20457;-75
2021/09/16 08:05:11;;;;;;;3.50;1.93;;;17.50;99.90;;;;;;5066139;28;20454;-75
2021/09/16 08:07:38;;;;;;;1.80;1.70;;;17.40;99.90;;;;;;5065657;28;20493;-75
2021/09/16 08:10:06;;;;;;;2.50;1.70;;;17.40;99.90;;;;;;5065549;28;20462;-75
2021/09/16 08:12:32;;;;;;;1.57;1.47;;;17.30;99.90;;;;;;5065006;28;20458;-75
2021/09/16 08:15:00;;;;;;;1.97;1.77;;;17.30;99.90;;;;;;5065553;28;20497;-75
2021/09/16 08:17:27;;;;;;;1.50;1.10;;;17.30;99.90;;;;;;5065241;28;20479;-75
2021/09/16 08:19:54;;;;;;;2.10;1.90;;;17.30;99.90;;;;;;5065627;28;20459;-75
2021/09/16 08:22:21;;;;;;;1.80;1.60;;;17.30;99.90;;;;;;5064861;28;20984;-75
2021/09/16 08:24:48;;;;;;;1.97;1.77;;;17.20;99.90;;;;;;5065797;28;20844;-75
2021/09/16 08:27:14;;;;;;;2.37;2.00;;;17.30;99.90;;;;;;5064922;28;20870;-75
2021/09/16 08:29:41;;;;;;;2.70;1.63;;;17.20;99.90;;;;;;5065663;28;20454;-75
2021/09/16 08:32:10;;;;;;;2.83;1.50;;;17.30;99.90;;;;;;5065197;28;21144;-75
2021/09/16 08:34:37;;;;;;;2.83;2.00;;;17.20;99.90;;;;;;5065425;28;20501;-75
2021/09/16 08:37:06;;;;;;;2.20;2.00;;;17.20;99.90;;;;;;5065050;28;20466;-75
2021/09/16 08:39:32;;;;;;;4.57;2.40;;;17.20;99.90;;;;;;5065068;28;20549;-75
2021/09/16 08:41:59;;;;;;;2.03;1.83;;;17.20;99.90;;;;;;5065202;28;20470;-75
2021/09/16 08:44:26;;;;;;;2.10;1.77;;;17.10;99.90;;;;;;5065391;28;20455;-75
2021/09/16 08:46:53;;;;;;;2.33;1.70;;;17.20;99.90;;;;;;5065629;28;20478;-75
2021/09/16 08:49:21;;;;;;;4.60;1.87;;;17.20;99.90;;;;;;5065057;28;21040;-75
2021/09/16 08:51:48;;;;;;;1.30;1.20;;;17.10;99.90;;;;;;5065252;28;20458;-75
2021/09/16 08:54:16;;;;;;;1.43;1.10;;;17.20;99.90;;;;;;5065016;28;20493;-75
2021/09/16 08:56:46;;;;;;;1.90;1.20;;;17.20;99.90;;;;;;5066016;28;20470;-75
2021/09/16 08:59:13;;;;;;;1.30;1.20;;;17.20;99.90;;;;;;5065416;28;20518;-74
2021/09/16 09:01:40;;;;;;;1.60;1.13;;;17.10;99.90;;;;;;5065037;28;20458;-75
2021/09/16 09:04:07;;;;;;;1.47;1.17;;;17.00;99.90;;;;;;5065479;28;20458;-75
2021/09/16 09:06:38;;;;;;;1.00;0.90;;;17.00;99.90;;;;;;5064630;28;20462;-75
2021/09/16 09:09:14;;;;;;;3.27;1.10;;;17.00;99.90;;;;;;5065233;28;20482;-75
2021/09/16 09:11:56;;;;;;;1.20;1.00;;;16.90;99.90;;;;;;5064993;28;20465;-75
2021/09/16 09:14:28;;;;;;;1.60;1.20;;;16.80;99.90;;;;;;5065204;28;20486;-75
2021/09/16 09:16:55;;;;;;;2.30;0.90;;;16.80;99.90;;;;;;5065134;28;20490;-75
2021/09/16 09:19:24;;;;;;;1.90;1.00;;;16.80;99.90;;;;;;5065047;28;20995;-75
2021/09/16 09:21:54;;;;;;;1.77;1.30;;;16.70;99.90;;;;;;5064779;28;20466;-75
2021/09/16 09:24:36;;;;;;;2.00;1.10;;;16.70;99.90;;;;;;5064768;28;20461;-75
2021/09/16 09:27:22;;;;;;;1.20;1.10;;;16.70;99.90;;;;;;5065083;28;20468;-75
2021/09/16 09:30:18;;;;;;;4.13;1.83;;;16.70;99.90;;;;;;5064484;28;20833;-75
2021/09/16 09:32:54;;;;;;;1.67;1.10;;;16.70;99.90;;;;;;5039536;28;20466;-75
2021/09/16 09:35:34;;;;;;;1.30;1.17;;;16.70;99.90;;;;;;5064825;28;20532;-75
2021/09/16 09:38:06;;;;;;;1.37;1.27;;;16.60;99.90;;;;;;5065723;28;20508;-75
2021/09/16 09:40:35;;;;;;;2.63;1.37;;;16.60;99.90;;;;;;5068514;28;20458;-75
2021/09/16 09:43:25;;;;;;;1.87;1.50;;;16.60;99.90;;;;;;5069116;28;20465;-75
2021/09/16 09:46:00;;;;;;;2.03;1.70;;;16.50;99.90;;;;;;5065698;28;20961;-75
2021/09/16 09:48:27;;;;;;;3.93;2.73;;;16.60;99.90;;;;;;5069531;28;20863;-75
2021/09/16 09:50:55;;;;;;;3.37;3.07;;;16.60;99.90;;;;;;5068950;28;20462;-75
2021/09/16 09:53:29;;;;;;;3.13;2.83;;;16.50;99.90;;;;;;5069359;28;20476;-74
2021/09/16 09:55:57;;;;;;;3.30;3.00;;;16.50;99.90;;;;;;5069543;28;20462;-75
2021/09/16 09:58:37;;;;;;;3.10;2.83;;;16.50;99.90;;;;;;5069142;28;20518;-75
2021/09/16 10:01:27;;;;;;;4.97;3.50;;;16.50;99.90;;;;;;5069620;28;20589;-75
2021/09/16 10:03:54;;;;;;;4.27;3.80;;;16.50;99.90;;;;;;5069812;28;20648;-75
2021/09/16 10:06:22;;;;;;;4.40;4.00;;;16.60;99.90;;;;;;5070004;28;20469;-75
2021/09/16 10:09:10;;;;;;;5.90;5.03;;;16.60;99.90;;;;;;5069296;28;20494;-75
2021/09/16 10:11:39;;;;;;;6.60;5.30;;;16.60;99.90;;;;;;5068648;28;20471;-75
2021/09/16 10:14:06;;;;;;;5.67;5.10;;;16.60;99.90;;;;;;5069287;28;21248;-75
2021/09/16 10:16:33;;;;;;;6.73;6.13;;;16.60;99.90;;;;;;5069709;28;20460;-75
2021/09/16 10:19:00;;;;;;;7.40;6.30;;;16.60;99.90;;;;;;5069870;28;20481;-75
2021/09/16 10:21:30;;;;;;;7.40;6.70;;;16.50;99.90;;;;;;5068381;28;20463;-75
2021/09/16 10:23:59;;;;;;;7.93;7.00;;;16.60;99.90;;;;;;5068058;28;20950;-75
2021/09/16 10:26:38;;;;;;;7.60;6.70;;;16.50;99.90;;;;;;5046957;28;20943;-75
2021/09/16 10:29:07;;;;;;;7.90;7.10;;;16.50;99.90;;;;;;5065066;28;20602;-75
2021/09/16 10:31:34;;;;;;;9.43;8.30;;;16.50;99.90;;;;;;5065523;28;20458;-75
2021/09/16 10:34:38;;;;;;;10.30;8.90;;;16.50;99.90;;;;;;5066486;28;20877;-75
2021/09/16 10:37:13;;;;;;;7.73;6.93;;;16.50;99.90;;;;;;5066570;28;20454;-75
2021/09/16 10:39:40;;;;;;;8.23;7.23;;;16.50;99.90;;;;;;5057033;28;20450;-75
2021/09/16 10:42:09;;;;;;;8.93;8.03;;;16.50;99.90;;;;;;5053129;28;20463;-75
2021/09/16 10:44:37;;;;;;;8.90;8.00;;;16.60;99.90;;;;;;5060693;28;20448;-76
2021/09/16 10:47:16;;;;;;;8.17;7.20;;;16.60;99.90;;;;;;5070638;28;20451;-75
2021/09/16 10:49:43;;;;;;;9.10;8.20;;;16.60;99.90;;;;;;5060829;28;20493;-73
2021/09/16 10:52:22;;;;;;;12.30;7.93;;;16.60;99.90;;;;;;5057114;28;20481;-73
2021/09/16 10:54:54;;;;;;;10.37;9.03;;;16.60;99.90;;;;;;5054527;28;20899;-73
2021/09/16 10:57:35;;;;;;;10.60;9.47;;;16.60;99.90;;;;;;5051341;28;20873;-73
2021/09/16 11:00:10;;;;;;;11.93;10.43;;;16.60;99.90;;;;;;5058265;28;20454;-73
2021/09/16 11:03:14;;;;;;;12.90;10.33;;;16.60;99.90;;;;;;5057260;28;20466;-73
2021/09/16 11:05:57;;;;;;;17.43;11.17;;;16.50;99.90;;;;;;5059938;28;20458;-73
2021/09/16 11:08:59;;;;;;;14.00;11.67;;;16.50;99.90;;;;;;5063016;28;20528;-73
2021/09/16 11:14:42;;;;;;;13.13;10.27;;;16.40;99.90;;;;;;5005347;28;20477;-75
2021/09/16 11:17:51;;;;;;;13.50;10.27;;;16.50;99.90;;;;;;5024038;28;20517;-75
2021/09/16 11:20:21;;;;;;;16.30;11.13;;;16.50;99.90;;;;;;5059592;28;20460;-75
2021/09/16 11:22:51;;;;;;;12.07;10.00;;;16.50;99.90;;;;;;5056250;28;20846;-75
2021/09/16 11:25:18;;;;;;;10.63;9.50;;;16.50;99.90;;;;;;5058188;28;20459;-75
2021/09/16 11:27:45;;;;;;;14.03;10.43;;;16.60;99.90;;;;;;5058673;28;20487;-75
2021/09/16 11:30:17;;;;;;;15.40;12.40;;;16.60;99.90;;;;;;5057504;28;20462;-75
2021/09/16 11:32:44;;;;;;;14.87;11.60;;;16.70;99.90;;;;;;5058443;28;20549;-75
2021/09/16 11:35:14;;;;;;;14.53;11.50;;;16.70;99.90;;;;;;5059856;28;20476;-75
2021/09/16 11:37:43;;;;;;;12.43;10.57;;;16.70;99.90;;;;;;5059891;28;20510;-75
2021/09/16 11:40:12;;;;;;;17.53;11.50;;;16.60;99.90;;;;;;5061879;28;20804;-75
2021/09/16 11:42:46;;;;;;;16.23;11.93;;;16.70;99.90;;;;;;5059824;28;20467;-75
2021/09/16 11:45:20;;;;;;;11.40;9.67;;;16.60;99.90;;;;;;5059886;28;20491;-75
2021/09/16 11:47:54;;;;;;;14.63;10.33;;;16.60;99.90;;;;;;5059002;28;20475;-74
2021/09/16 11:50:30;;;;;;;16.43;12.43;;;16.70;99.90;;;;;;5060337;28;20553;-75
2021/09/16 11:53:00;;;;;;;14.60;11.40;;;16.70;99.90;;;;;;5060286;28;20459;-75
2021/09/16 11:55:31;;;;;;;13.20;11.40;;;16.80;99.90;;;;;;5059476;28;20487;-74
2021/09/16 11:58:04;;;;;;;12.00;10.30;;;16.80;99.90;;;;;;5058892;28;21057;-75
2021/09/16 12:00:36;;;;;;;16.30;12.13;;;16.80;99.90;;;;;;5057665;28;20882;-74
2021/09/16 12:03:05;;;;;;;17.00;13.00;;;16.90;99.90;;;;;;5059314;28;20467;-74
2021/09/16 12:05:47;;;;;;;14.50;11.67;;;16.90;99.90;;;;;;5057727;28;20455;-74
2021/09/16 12:08:20;;;;;;;15.53;12.70;;;16.90;99.90;;;;;;5058414;28;20479;-74
2021/09/16 12:10:52;;;;;;;18.27;13.03;;;16.80;99.90;;;;;;5053836;28;20494;-74
2021/09/16 12:13:22;;;;;;;17.40;14.07;;;16.80;99.90;;;;;;5060993;28;20455;-74
2021/09/16 12:15:53;;;;;;;14.93;11.73;;;16.80;99.90;;;;;;5059850;28;20497;-75
2021/09/16 12:18:22;;;;;;;14.83;12.10;;;16.70;99.90;;;;;;5052657;28;20962;-74
2021/09/16 12:20:50;;;;;;;16.43;12.97;;;16.80;99.90;;;;;;5067154;28;20458;-75
2021/09/16 12:23:18;;;;;;;15.47;12.30;;;16.70;99.90;;;;;;5068297;28;20465;-74
2021/09/16 12:25:55;;;;;;;14.13;12.30;;;16.70;99.90;;;;;;5069125;28;20512;-74
2021/09/16 12:28:24;;;;;;;13.47;11.77;;;16.70;99.90;;;;;;5069065;28;20552;-74
2021/09/16 12:30:54;;;;;;;18.10;14.00;;;16.70;99.90;;;;;;5068483;28;20992;-75
2021/09/16 12:33:39;;;;;;;13.83;11.43;;;16.70;99.90;;;;;;5069829;28;20835;-75
2021/09/16 12:36:21;;;;;;;12.73;11.43;;;16.70;99.90;;;;;;5069523;28;20494;-74
2021/09/16 12:38:54;;;;;;;13.33;11.97;;;16.70;99.90;;;;;;5069143;28;20486;-74
2021/09/16 12:41:42;;;;;;;14.27;12.77;;;16.70;99.90;;;;;;5068399;28;20553;-75
2021/09/16 12:44:13;;;;;;;14.67;12.93;;;16.80;99.90;;;;;;5069152;28;20576;-75
2021/09/16 12:46:48;;;;;;;16.43;13.40;;;16.70;99.90;;;;;;5068662;28;20459;-74
2021/09/16 12:49:36;;;;;;;13.90;12.40;;;16.80;99.90;;;;;;5069178;28;20484;-74
2021/09/16 12:52:13;;;;;;;17.73;13.53;;;16.80;99.90;;;;;;5068534;28;20451;-74
2021/09/16 12:54:47;;;;;;;14.93;12.07;;;16.70;99.90;;;;;;5068996;28;20572;-74
2021/09/16 12:57:16;;;;;;;15.53;13.47;;;16.70;99.90;;;;;;5125373;23;20880;-68
2021/09/16 12:59:45;;;;;;;15.00;12.73;;;16.70;99.90;;;;;;5069834;28;20451;-68
2021/09/16 13:02:16;;;;;;;16.77;14.33;;;16.70;99.90;;;;;;5067929;28;20905;-68
2021/09/16 13:05:02;;;;;;;16.03;14.03;;;16.70;99.90;;;;;;5070117;28;20459;-68
2021/09/16 13:07:31;;;;;;;17.10;14.27;;;16.80;99.90;;;;;;5070175;28;20484;-68
2021/09/16 13:10:16;;;;;;;18.13;14.30;;;16.80;99.90;;;;;;5070157;28;20458;-68
2021/09/16 13:12:46;;;;;;;17.30;14.03;;;16.90;99.90;;;;;;5070060;28;20494;-68
2021/09/16 13:15:14;;;;;;;13.73;11.93;;;16.90;99.90;;;;;;5074229;28;20513;-68